createdAt,value
2023-02-02T00:01:34.471Z,8.80
2023-02-02T00:04:03.454Z,8.80
2023-02-02T00:06:33.407Z,8.80
2023-02-02T00:09:03.601Z,8.80
2023-02-02T00:11:32.029Z,8.80
2023-02-02T00:14:01.401Z,8.80
2023-02-02T00:16:45.838Z,8.80
2023-02-02T00:19:15.970Z,8.70
2023-02-02T00:21:44.776Z,8.50
2023-02-02T00:24:18.037Z,8.30
2023-02-02T00:26:48.302Z,8.20
2023-02-02T00:29:19.656Z,8.10
2023-02-02T00:31:51.345Z,8.00
2023-02-02T00:34:20.228Z,7.90
2023-02-02T00:36:49.874Z,7.90
2023-02-02T00:39:20.427Z,7.80
2023-02-02T00:41:49.773Z,7.80
2023-02-02T00:44:35.381Z,7.80
2023-02-02T00:47:06.309Z,7.80
2023-02-02T00:49:34.945Z,7.70
2023-02-02T00:52:03.593Z,7.70
2023-02-02T00:54:32.265Z,7.60
2023-02-02T00:57:00.786Z,7.60
2023-02-02T00:59:29.294Z,7.50
2023-02-02T01:01:57.961Z,7.60
2023-02-02T01:04:27.860Z,7.60
2023-02-02T01:06:56.382Z,7.60
2023-02-02T01:09:25.065Z,7.60
2023-02-02T01:11:53.760Z,7.70
2023-02-02T01:14:22.549Z,7.70
2023-02-02T01:16:51.170Z,7.80
2023-02-02T01:19:19.796Z,7.80
2023-02-02T01:21:51.507Z,7.80
2023-02-02T01:24:22.117Z,7.80
2023-02-02T01:26:50.710Z,7.80
2023-02-02T01:29:19.269Z,7.80
2023-02-02T01:31:49.387Z,7.90
2023-02-02T01:34:18.452Z,7.90
2023-02-02T01:36:46.961Z,7.90
2023-02-02T01:39:16.908Z,7.90
2023-02-02T01:41:45.541Z,7.90
2023-02-02T01:44:53.316Z,7.90
2023-02-02T01:47:24.495Z,8.00
2023-02-02T01:49:53.669Z,8.00
2023-02-02T01:52:25.630Z,8.00
2023-02-02T01:54:58.688Z,8.10
2023-02-02T01:57:35.168Z,8.10
2023-02-02T02:00:07.870Z,8.10
2023-02-02T02:02:44.252Z,8.10
2023-02-02T02:05:13.513Z,8.10
2023-02-02T02:07:44.274Z,8.10
2023-02-02T02:10:14.171Z,8.10
2023-02-02T02:12:42.645Z,8.10
2023-02-02T02:15:30.038Z,8.10
2023-02-02T02:18:07.905Z,8.10
2023-02-02T02:21:25.712Z,8.10
2023-02-02T02:24:54.229Z,8.10
2023-02-02T02:28:01.881Z,8.00
2023-02-02T02:31:17.249Z,7.90
2023-02-02T02:33:53.050Z,7.80
2023-02-02T02:36:32.599Z,7.70
2023-02-02T02:39:08.183Z,7.70
2023-02-02T02:41:43.094Z,7.70
2023-02-02T02:44:15.582Z,7.70
2023-02-02T02:46:44.737Z,7.60
2023-02-02T02:49:15.977Z,7.60
2023-02-02T02:51:50.497Z,7.60
2023-02-02T02:54:31.019Z,7.60
2023-02-02T02:57:31.060Z,7.50
2023-02-02T03:00:10.153Z,7.50
2023-02-02T03:02:46.516Z,7.50
2023-02-02T03:05:28.267Z,7.60
2023-02-02T03:08:05.470Z,7.60
2023-02-02T03:10:36.184Z,7.60
2023-02-02T03:13:10.046Z,7.50
2023-02-02T03:15:41.787Z,7.50
2023-02-02T03:18:10.760Z,7.60
2023-02-02T03:20:41.305Z,7.60
2023-02-02T03:23:09.847Z,7.60
2023-02-02T03:25:38.937Z,7.60
2023-02-02T03:28:08.134Z,7.60
2023-02-02T03:30:38.427Z,7.60
2023-02-02T03:33:08.014Z,7.60
2023-02-02T03:35:36.420Z,7.60
2023-02-02T03:38:06.541Z,7.60
2023-02-02T03:40:35.161Z,7.60
2023-02-02T03:43:04.245Z,7.60
2023-02-02T03:45:35.531Z,7.70
2023-02-02T03:48:06.063Z,7.60
2023-02-02T03:50:35.161Z,7.70
2023-02-02T03:53:03.654Z,7.70
2023-02-02T03:55:35.234Z,7.60
2023-02-02T03:58:03.781Z,7.60
2023-02-02T04:00:32.739Z,7.60
2023-02-02T04:03:01.461Z,7.60
2023-02-02T04:05:30.149Z,7.60
2023-02-02T04:07:58.608Z,7.60
2023-02-02T04:10:27.091Z,7.60
2023-02-02T04:12:59.965Z,7.60
2023-02-02T04:15:28.564Z,7.60
2023-02-02T04:17:56.971Z,7.70
2023-02-02T04:20:25.392Z,7.70
2023-02-02T04:22:55.509Z,7.70
2023-02-02T04:25:24.216Z,7.70
2023-02-02T04:27:52.890Z,7.80
2023-02-02T04:30:23.414Z,7.70
2023-02-02T04:32:53.408Z,7.70
2023-02-02T04:35:22.238Z,7.70
2023-02-02T04:37:51.257Z,7.70
2023-02-02T04:40:20.583Z,7.70
2023-02-02T04:42:49.107Z,7.70
2023-02-02T04:45:18.043Z,7.70
2023-02-02T04:47:48.013Z,7.70
2023-02-02T04:50:17.223Z,7.70
2023-02-02T04:52:45.756Z,7.60
2023-02-02T04:55:14.359Z,7.70
2023-02-02T04:57:43.720Z,7.70
2023-02-02T05:00:13.574Z,7.70
2023-02-02T05:02:43.062Z,7.80
2023-02-02T05:05:15.432Z,7.80
2023-02-02T05:07:43.862Z,7.80
2023-02-02T05:10:13.708Z,7.80
2023-02-02T05:12:42.232Z,7.80
2023-02-02T05:15:12.016Z,7.80
2023-02-02T05:17:40.495Z,7.80
2023-02-02T05:20:10.327Z,7.90
2023-02-02T05:22:40.384Z,7.90
2023-02-02T05:25:10.136Z,7.90
2023-02-02T05:27:38.919Z,7.90
2023-02-02T05:30:08.821Z,8.00
2023-02-02T05:32:37.231Z,8.00
2023-02-02T05:35:06.120Z,8.10
2023-02-02T05:37:34.708Z,8.10
2023-02-02T05:40:04.753Z,8.10
2023-02-02T05:42:33.331Z,8.10
2023-02-02T05:45:01.896Z,8.10
2023-02-02T05:47:30.628Z,8.20
2023-02-02T05:49:59.169Z,8.20
2023-02-02T05:52:36.804Z,8.30
2023-02-02T05:55:07.453Z,8.30
2023-02-02T05:57:37.085Z,8.30
2023-02-02T06:00:07.727Z,8.20
2023-02-02T06:02:40.701Z,8.20
2023-02-02T06:05:10.797Z,8.20
2023-02-02T06:07:39.911Z,8.10
2023-02-02T06:10:13.342Z,8.20
2023-02-02T06:12:45.623Z,8.20
2023-02-02T06:15:18.817Z,8.30
2023-02-02T06:17:48.411Z,8.30
2023-02-02T06:20:17.774Z,8.20
2023-02-02T06:22:52.440Z,8.30
2023-02-02T06:25:23.760Z,8.30
2023-02-02T06:27:56.973Z,8.30
2023-02-02T06:30:38.687Z,8.30
2023-02-02T06:33:08.500Z,8.30
2023-02-02T06:35:38.789Z,8.30
2023-02-02T06:38:10.501Z,8.30
2023-02-02T06:40:45.452Z,8.30
2023-02-02T06:43:20.996Z,8.30
2023-02-02T06:45:56.377Z,8.30
2023-02-02T06:48:29.665Z,8.30
2023-02-02T06:51:08.850Z,8.30
2023-02-02T06:53:39.539Z,8.30
2023-02-02T06:56:16.491Z,8.30
2023-02-02T06:58:49.148Z,8.30
2023-02-02T07:01:18.663Z,8.30
2023-02-02T07:03:54.096Z,8.30
2023-02-02T07:06:25.696Z,8.30
2023-02-02T07:09:01.935Z,8.20
2023-02-02T07:11:38.202Z,8.10
2023-02-02T07:14:10.235Z,8.10
2023-02-02T07:16:47.516Z,8.10
2023-02-02T07:19:20.657Z,8.00
2023-02-02T07:21:53.972Z,8.10
2023-02-02T07:24:23.644Z,8.00
2023-02-02T07:27:03.289Z,8.00
2023-02-02T07:29:32.812Z,8.00
2023-02-02T07:32:01.911Z,8.00
2023-02-02T07:34:30.856Z,8.00
2023-02-02T07:36:59.961Z,7.90
2023-02-02T07:39:29.047Z,8.00
2023-02-02T07:41:59.919Z,8.10
2023-02-02T07:44:36.956Z,8.00
2023-02-02T07:47:05.769Z,8.00
2023-02-02T07:49:34.519Z,8.00
2023-02-02T07:52:03.539Z,8.10
2023-02-02T07:54:33.215Z,8.10
2023-02-02T07:57:03.677Z,8.10
2023-02-02T07:59:32.624Z,8.10
2023-02-02T08:02:01.536Z,8.10
2023-02-02T08:04:30.330Z,8.10
2023-02-02T08:06:59.216Z,8.10
2023-02-02T08:09:27.884Z,8.10
2023-02-02T08:12:01.880Z,8.10
2023-02-02T08:14:32.887Z,8.10
2023-02-02T08:17:02.102Z,8.10
2023-02-02T08:19:30.771Z,8.10
2023-02-02T08:21:59.395Z,8.00
2023-02-02T08:24:28.146Z,8.00
2023-02-02T08:26:56.991Z,8.00
2023-02-02T08:29:25.613Z,8.00
2023-02-02T08:31:56.325Z,8.00
2023-02-02T08:34:24.985Z,8.00
2023-02-02T08:36:53.783Z,8.00
2023-02-02T08:39:22.999Z,8.00
2023-02-02T08:41:51.869Z,8.10
2023-02-02T08:44:20.592Z,8.00
2023-02-02T08:46:52.296Z,8.00
2023-02-02T08:49:22.633Z,8.00
2023-02-02T08:51:51.404Z,7.90
2023-02-02T08:54:20.310Z,7.90
2023-02-02T08:56:49.023Z,7.90
2023-02-02T08:59:17.897Z,7.90
2023-02-02T09:01:46.688Z,7.90
2023-02-02T09:04:17.674Z,7.90
2023-02-02T09:06:54.809Z,7.80
2023-02-02T09:09:23.786Z,7.80
2023-02-02T09:11:52.753Z,7.80
2023-02-02T09:14:23.541Z,7.80
2023-02-02T09:16:54.749Z,7.80
2023-02-02T09:37:39.444Z,7.80
2023-02-02T09:41:26.907Z,7.80
2023-02-02T09:56:57.741Z,8.00
2023-02-02T10:00:13.565Z,8.00
2023-02-02T10:09:35.706Z,8.20
2023-02-02T10:12:14.910Z,8.30
2023-02-02T10:14:48.544Z,8.40
2023-02-02T10:17:40.141Z,8.40
2023-02-02T10:20:26.538Z,8.40
2023-02-02T10:23:01.212Z,8.50
2023-02-02T10:25:32.321Z,8.50
2023-02-02T10:28:08.401Z,8.50
2023-02-02T10:30:46.359Z,8.60
2023-02-02T10:33:22.708Z,8.70
2023-02-02T10:35:59.264Z,8.70
2023-02-02T10:42:13.348Z,8.80
2023-02-02T10:45:34.828Z,8.90
2023-02-02T10:49:01.646Z,9.00
2023-02-02T10:52:53.858Z,9.10
2023-02-02T10:56:46.158Z,9.10
2023-02-02T11:00:05.848Z,9.20
2023-02-02T11:03:39.694Z,9.20
2023-02-02T11:11:13.097Z,9.20
2023-02-02T11:14:45.061Z,9.30
2023-02-02T11:17:35.424Z,9.30
2023-02-02T11:20:23.557Z,9.20
2023-02-02T11:23:02.440Z,9.20
2023-02-02T11:25:35.252Z,9.20
2023-02-02T11:28:19.108Z,9.20
2023-02-02T11:30:52.754Z,9.20
2023-02-02T11:33:29.334Z,9.20
2023-02-02T11:36:00.342Z,9.10
2023-02-02T11:38:31.545Z,9.00
2023-02-02T11:41:04.127Z,9.00
2023-02-02T11:43:41.301Z,9.10
2023-02-02T11:46:19.763Z,9.10
2023-02-02T11:48:52.746Z,9.10
2023-02-02T11:51:25.320Z,9.00
2023-02-02T11:54:06.505Z,9.10
2023-02-02T11:56:36.590Z,9.10
2023-02-02T11:59:05.774Z,9.10
2023-02-02T12:01:36.892Z,9.10
2023-02-02T12:04:24.872Z,9.00
2023-02-02T12:06:53.533Z,9.00
2023-02-02T12:09:26.661Z,9.00
2023-02-02T12:12:24.655Z,9.00
2023-02-02T12:14:59.095Z,9.10
2023-02-02T12:17:39.067Z,9.10
2023-02-02T12:20:28.024Z,9.10
2023-02-02T12:23:20.455Z,9.10
2023-02-02T12:26:00.685Z,9.10
2023-02-02T12:28:47.884Z,9.20
2023-02-02T12:31:44.427Z,9.10
2023-02-02T12:34:27.992Z,9.10
2023-02-02T12:37:04.577Z,9.10
2023-02-02T12:39:40.060Z,9.10
2023-02-02T12:42:39.788Z,9.10
2023-02-02T12:45:34.207Z,9.10
2023-02-02T12:48:15.651Z,9.10
2023-02-02T12:51:05.597Z,9.00
2023-02-02T12:54:35.202Z,8.90
2023-02-02T12:56:59.864Z,8.90
2023-02-02T12:59:52.037Z,8.80
2023-02-02T13:02:31.741Z,8.80
2023-02-02T13:05:20.521Z,8.70
2023-02-02T13:07:54.284Z,8.70
2023-02-02T13:10:29.533Z,8.80
2023-02-02T13:13:02.827Z,8.80
2023-02-02T13:15:37.113Z,8.80
2023-02-02T13:18:12.079Z,8.90
2023-02-02T13:20:46.154Z,8.80
2023-02-02T13:23:21.575Z,8.70
2023-02-02T13:25:53.753Z,8.70
2023-02-02T13:28:39.507Z,8.70
2023-02-02T13:31:20.111Z,8.70
2023-02-02T13:33:56.745Z,8.70
2023-02-02T13:36:30.886Z,8.60
2023-02-02T13:39:03.228Z,8.50
2023-02-02T13:41:32.916Z,8.40
2023-02-02T13:44:05.779Z,8.40
2023-02-02T13:46:44.653Z,8.30
2023-02-02T13:49:18.387Z,8.30
2023-02-02T13:51:59.514Z,8.30
2023-02-02T13:55:22.609Z,8.20
2023-02-02T13:58:20.622Z,8.20
2023-02-02T14:00:51.351Z,8.10
2023-02-02T14:03:32.476Z,8.20
2023-02-02T14:06:11.378Z,8.10
2023-02-02T14:08:56.047Z,8.10
2023-02-02T14:11:28.786Z,8.10
2023-02-02T14:14:18.843Z,8.10
2023-02-02T14:16:52.811Z,8.00
2023-02-02T14:19:53.171Z,8.00
2023-02-02T14:22:38.740Z,8.00
2023-02-02T14:25:41.604Z,8.00
2023-02-02T14:28:13.211Z,8.10
2023-02-02T14:31:20.564Z,8.10
2023-02-02T14:33:52.129Z,8.10
2023-02-02T14:36:21.124Z,8.10
2023-02-02T14:39:02.929Z,8.10
2023-02-02T14:42:24.121Z,8.10
2023-02-02T14:45:24.228Z,8.10
2023-02-02T14:47:55.914Z,8.20
2023-02-02T14:50:43.559Z,8.20
2023-02-02T14:53:22.436Z,8.20
2023-02-02T14:56:01.622Z,8.20
2023-02-02T14:58:35.060Z,8.20
2023-02-02T15:01:10.495Z,8.20
2023-02-02T15:03:49.687Z,8.20
2023-02-02T15:06:34.755Z,8.20
2023-02-02T15:09:30.982Z,8.20
2023-02-02T15:12:26.137Z,8.20
2023-02-02T15:15:01.609Z,8.20
2023-02-02T15:17:41.577Z,8.10
2023-02-02T15:20:21.354Z,8.10
2023-02-02T15:22:58.430Z,8.10
2023-02-02T15:25:32.197Z,8.10
2023-02-02T15:28:14.350Z,8.10
2023-02-02T15:30:47.740Z,8.10
2023-02-02T15:33:29.183Z,8.10
2023-02-02T15:36:12.295Z,8.10
2023-02-02T15:38:45.239Z,8.10
2023-02-02T15:41:25.528Z,8.10
2023-02-02T15:43:55.375Z,8.10
2023-02-02T15:46:28.666Z,8.00
2023-02-02T15:49:33.790Z,8.00
2023-02-02T15:52:12.254Z,8.00
2023-02-02T15:55:11.691Z,8.00
2023-02-02T15:57:42.719Z,8.00
2023-02-02T16:00:27.049Z,8.00
2023-02-02T16:03:02.439Z,8.00
2023-02-02T16:05:47.767Z,8.00
2023-02-02T16:08:21.419Z,8.00
2023-02-02T16:10:52.480Z,8.00
2023-02-02T16:13:26.634Z,8.00
2023-02-02T16:16:00.823Z,8.00
2023-02-02T16:18:30.730Z,8.00
2023-02-02T16:21:03.770Z,8.00
2023-02-02T16:23:36.048Z,8.00
2023-02-02T16:26:08.595Z,8.00
2023-02-02T16:28:38.253Z,7.90
2023-02-02T16:31:07.504Z,7.90
2023-02-02T16:33:48.685Z,7.90
2023-02-02T16:36:25.935Z,8.00
2023-02-02T16:39:00.528Z,7.90
2023-02-02T16:41:49.735Z,7.90
2023-02-02T16:44:40.381Z,8.00
2023-02-02T16:47:10.241Z,7.90
2023-02-02T16:49:55.464Z,7.90
2023-02-02T16:52:26.641Z,7.90
2023-02-02T16:54:58.342Z,8.00
2023-02-02T16:57:34.160Z,8.00
2023-02-02T17:01:15.895Z,8.00
2023-02-02T17:03:46.702Z,8.00
2023-02-02T17:10:45.274Z,8.00
2023-02-02T17:14:06.995Z,8.00
2023-02-02T17:23:55.861Z,8.10
2023-02-02T17:26:24.806Z,8.10
2023-02-02T17:28:57.241Z,8.00
2023-02-02T17:31:26.529Z,8.10
2023-02-02T17:33:55.705Z,8.10
2023-02-02T17:36:24.721Z,8.10
2023-02-02T17:38:54.459Z,8.10
2023-02-02T17:41:23.166Z,8.10
2023-02-02T17:43:51.978Z,8.10
2023-02-02T17:46:22.508Z,8.10
2023-02-02T17:48:51.287Z,8.10
2023-02-02T17:51:20.124Z,8.10
2023-02-02T17:53:48.924Z,8.10
2023-02-02T17:56:18.435Z,8.10
2023-02-02T17:58:47.231Z,8.10
2023-02-02T18:01:19.044Z,8.20
2023-02-02T18:03:49.536Z,8.20
2023-02-02T18:06:19.928Z,8.20
2023-02-02T18:08:49.338Z,8.20
2023-02-02T18:11:18.814Z,8.20
2023-02-02T18:13:47.651Z,8.20
2023-02-02T18:16:16.744Z,8.20
2023-02-02T18:18:46.068Z,8.20
2023-02-02T18:21:17.031Z,8.20
2023-02-02T18:23:52.572Z,8.20
2023-02-02T18:26:26.635Z,8.20
2023-02-02T18:28:57.525Z,8.20
2023-02-02T18:31:27.366Z,8.20
2023-02-02T18:33:56.321Z,8.20
2023-02-02T18:36:26.900Z,8.20
2023-02-02T18:38:58.360Z,8.20
2023-02-02T18:41:27.662Z,8.20
2023-02-02T18:43:56.704Z,8.20
2023-02-02T18:46:27.016Z,8.20
2023-02-02T18:48:57.383Z,8.30
2023-02-02T18:51:28.049Z,8.20
2023-02-02T18:54:00.612Z,8.20
2023-02-02T18:56:30.688Z,8.20
2023-02-02T18:59:00.010Z,8.20
2023-02-02T19:01:29.274Z,8.20
2023-02-02T19:03:58.804Z,8.20
2023-02-02T19:06:46.530Z,8.20
2023-02-02T19:09:17.611Z,8.20
2023-02-02T19:11:48.867Z,8.20
2023-02-02T19:14:19.883Z,8.20
2023-02-02T19:16:57.771Z,8.20
2023-02-02T19:19:30.854Z,8.20
2023-02-02T19:22:03.031Z,8.20
2023-02-02T19:24:39.469Z,8.20
2023-02-02T19:27:18.331Z,8.20
2023-02-02T19:29:49.374Z,8.10
2023-02-02T19:32:21.909Z,8.10
2023-02-02T19:34:51.742Z,8.20
2023-02-02T19:37:26.329Z,8.20
2023-02-02T19:39:57.169Z,8.20
2023-02-02T19:42:26.415Z,8.20
2023-02-02T19:44:55.762Z,8.10
2023-02-02T19:47:32.037Z,8.20
2023-02-02T19:50:13.415Z,8.10
2023-02-02T19:52:44.863Z,8.10
2023-02-02T19:55:22.475Z,8.10
2023-02-02T19:57:52.302Z,8.10
2023-02-02T20:00:24.092Z,8.10
2023-02-02T20:03:02.158Z,8.10
2023-02-02T20:05:35.661Z,8.10
2023-02-02T20:08:15.058Z,8.10
2023-02-02T20:10:46.442Z,8.10
2023-02-02T20:13:20.428Z,8.10
2023-02-02T20:15:50.490Z,8.10
2023-02-02T20:18:22.522Z,8.10
2023-02-02T20:20:54.443Z,8.10
2023-02-02T20:23:41.488Z,8.10
2023-02-02T20:26:22.447Z,8.10
2023-02-02T20:28:52.218Z,8.10
2023-02-02T20:31:23.371Z,8.20
2023-02-02T20:33:55.262Z,8.20
2023-02-02T20:36:32.527Z,8.20
2023-02-02T20:39:24.006Z,8.10
2023-02-02T20:41:52.959Z,8.20
2023-02-02T20:44:22.265Z,8.20
2023-02-02T20:46:51.376Z,8.20
2023-02-02T20:49:22.563Z,8.20
2023-02-02T20:51:51.439Z,8.20
2023-02-02T20:54:21.989Z,8.20
2023-02-02T20:56:51.180Z,8.20
2023-02-02T20:59:21.225Z,8.20
2023-02-02T21:01:51.420Z,8.20
2023-02-02T21:04:20.513Z,8.20
2023-02-02T21:06:50.240Z,8.20
2023-02-02T21:09:21.884Z,8.20
2023-02-02T21:11:50.934Z,8.20
2023-02-02T21:14:19.846Z,8.20
2023-02-02T21:16:48.803Z,8.20
2023-02-02T21:19:17.546Z,8.30
2023-02-02T21:21:46.348Z,8.30
2023-02-02T21:24:15.179Z,8.30
2023-02-02T21:26:45.409Z,8.30
2023-02-02T21:29:14.296Z,8.30
2023-02-02T21:31:44.020Z,8.30
2023-02-02T21:34:12.959Z,8.30
2023-02-02T21:36:45.386Z,8.30
2023-02-02T21:39:21.869Z,8.30
2023-02-02T21:42:09.327Z,8.30
2023-02-02T21:44:39.762Z,8.40
2023-02-02T21:47:27.818Z,8.40
2023-02-02T21:49:57.779Z,8.40
2023-02-02T21:52:29.144Z,8.40
2023-02-02T21:54:58.680Z,8.40
2023-02-02T21:57:37.593Z,8.40
2023-02-02T22:00:24.678Z,8.40
2023-02-02T22:02:54.641Z,8.40
2023-02-02T22:05:29.484Z,8.40
2023-02-02T22:08:00.134Z,8.50
2023-02-02T22:10:37.707Z,8.40
2023-02-02T22:13:17.936Z,8.50
2023-02-02T22:15:48.549Z,8.50
2023-02-02T22:18:20.415Z,8.50
2023-02-02T22:20:50.918Z,8.60
2023-02-02T22:23:22.007Z,8.60
2023-02-02T22:25:53.251Z,8.60
2023-02-02T22:28:26.295Z,8.70
2023-02-02T22:30:56.474Z,8.70
2023-02-02T22:33:26.787Z,8.70
2023-02-02T22:35:56.068Z,8.70
2023-02-02T22:38:26.752Z,8.80
2023-02-02T22:40:55.876Z,8.80
2023-02-02T22:43:26.420Z,8.80
2023-02-02T22:45:55.443Z,8.80
2023-02-02T22:48:24.123Z,8.80
2023-02-02T22:50:52.832Z,8.80
2023-02-02T22:53:21.983Z,8.80
2023-02-02T22:55:59.231Z,8.80
2023-02-02T22:58:29.685Z,8.90
2023-02-02T23:00:58.639Z,8.90
2023-02-02T23:03:27.419Z,8.90
2023-02-02T23:05:56.265Z,8.90
2023-02-02T23:08:25.016Z,8.90
2023-02-02T23:10:53.747Z,8.90
2023-02-02T23:13:22.709Z,8.90
2023-02-02T23:15:53.166Z,8.90
2023-02-02T23:18:22.642Z,9.00
2023-02-02T23:20:51.346Z,9.00
2023-02-02T23:23:20.090Z,9.10
2023-02-02T23:25:49.215Z,9.10
2023-02-02T23:28:17.935Z,9.10
2023-02-02T23:30:46.798Z,9.20
2023-02-02T23:33:17.329Z,9.20
2023-02-02T23:35:46.036Z,9.20
2023-02-02T23:38:14.978Z,9.20
2023-02-02T23:40:43.625Z,9.20
2023-02-02T23:43:12.357Z,9.10
2023-02-02T23:45:41.400Z,9.10
2023-02-02T23:48:10.818Z,9.10
2023-02-02T23:50:41.855Z,9.10
2023-02-02T23:53:12.447Z,9.10
2023-02-02T23:55:42.191Z,9.10
2023-02-02T23:58:11.971Z,9.10
